Página principal
METAR-TAF:

METAR-TAF

Aeroportos :

Cartum, Sudão

Aeroporto Internacional de Cartum

latitude: 15-36N, longitude: 032-33E, altura: 382 m

Observação actual do tempo

O boletim foi feito há 36 minutos, às 23:00 UTC
Vento 10 kt de nor-noroeste
Temperatura 30°C
Humidade 15%
Pressão 1011 hPa
Visibilidade 10 km ou mais
sem nuvens abaixo de 1500 metros e sem cumulonimbus

METAR: HSSS 192300Z 33010KT CAVOK 30/01 Q1011 NOSIG

Hora: 02:36 (23:36 UTC)

Previsão

O boletim foi feito há 6 horas e 36 minutos, às 17:00 UTC
Previsão válida de 19 às 18 UTC a 20 às 24 UTC
Vento 10 kt de noroeste com rajadas de 20 kt
Visibilidade 10 km ou mais
sem nuvens abaixo de 1500 metros e sem cumulonimbus
Temporariamente
de 19 às 18 UTC a 19 às 22 UTC
Vento 3 kt com direcção variável

TAF: HSSS 191700Z 1918/2024 32010G20KT CAVOK TEMPO 1918/1922 VRB03KT

Observações e previsões do tempo de mais de 4000 aeroportos (mensagens METAR e TAF).

As estações disponíveis são os pontos amarelos e vermelhos sobre o mapa.

Mova o rato sobre o mapa para ver o nome da estação.

Depois clique no ponto para visualizar as observações e previsões meteorológicas.

Para alterar o mapa : clique nos botões verdes com uma cruz preta para aumentar o zoom; no botão verde com uma pitada de zoom; ou nas setas verdes para mapas adjacentes.


METAR-TAF: